createdAt,value
2018-06-17T00:02:12.919Z,4.27
2018-06-17T00:04:43.880Z,4.47
2018-06-17T00:07:14.241Z,4.40
2018-06-17T00:09:44.214Z,4.60
2018-06-17T00:12:14.380Z,4.03
2018-06-17T00:14:44.782Z,4.70
2018-06-17T00:17:15.329Z,5.03
2018-06-17T00:19:53.191Z,4.90
2018-06-17T00:22:23.479Z,4.63
2018-06-17T00:24:53.971Z,4.50
2018-06-17T00:27:23.991Z,3.87
2018-06-17T00:29:54.327Z,4.20
2018-06-17T00:32:27.769Z,4.37
2018-06-17T00:34:58.691Z,4.30
2018-06-17T00:37:28.766Z,4.87
2018-06-17T00:39:58.608Z,4.40
2018-06-17T00:42:28.639Z,4.20
2018-06-17T00:44:57.774Z,4.40
2018-06-17T00:47:29.565Z,3.70
2018-06-17T00:49:59.553Z,4.80
2018-06-17T00:52:29.593Z,4.07
2018-06-17T00:54:59.783Z,4.50
2018-06-17T00:57:40.184Z,4.17
2018-06-17T01:00:10.619Z,4.13
2018-06-17T01:02:40.518Z,4.00
2018-06-17T01:05:10.554Z,4.40
2018-06-17T01:07:47.247Z,4.07
2018-06-17T01:10:17.229Z,4.23
2018-06-17T01:12:48.127Z,4.60
2018-06-17T01:15:19.134Z,3.97
2018-06-17T01:17:50.456Z,3.80
2018-06-17T01:20:23.211Z,4.07
2018-06-17T01:22:54.680Z,4.40
2018-06-17T01:25:26.733Z,4.20
2018-06-17T01:28:10.236Z,3.90
2018-06-17T01:30:43.271Z,3.50
2018-06-17T01:33:25.758Z,4.17
2018-06-17T01:35:56.627Z,3.60
2018-06-17T01:38:29.488Z,3.73
2018-06-17T01:40:59.828Z,3.57
2018-06-17T01:49:02.027Z,3.83
2018-06-17T01:51:32.332Z,3.53
2018-06-17T01:54:02.526Z,3.70
2018-06-17T01:56:32.936Z,4.13
2018-06-17T01:59:03.686Z,4.07
2018-06-17T02:01:33.737Z,3.50
2018-06-17T02:04:10.452Z,3.63
2018-06-17T02:06:47.139Z,3.77
2018-06-17T02:09:22.378Z,4.03
2018-06-17T02:11:58.307Z,3.73
2018-06-17T02:14:33.068Z,3.90
2018-06-17T02:17:03.208Z,3.27
2018-06-17T02:19:33.384Z,3.40
2018-06-17T02:22:04.520Z,3.50
2018-06-17T02:24:34.725Z,3.67
2018-06-17T02:27:04.652Z,3.47
2018-06-17T02:29:34.956Z,3.50
2018-06-17T02:32:06.447Z,3.27
2018-06-17T02:34:36.500Z,3.50
2018-06-17T02:37:07.381Z,3.17
2018-06-17T02:39:37.468Z,3.40
2018-06-17T02:42:08.511Z,3.70
2018-06-17T02:44:38.673Z,3.70
2018-06-17T02:47:13.563Z,3.30
2018-06-17T02:49:46.479Z,2.80
2018-06-17T02:52:21.242Z,3.77
2018-06-17T02:54:51.298Z,3.60
2018-06-17T02:57:21.615Z,3.20
2018-06-17T02:59:51.666Z,3.27
2018-06-17T03:02:21.447Z,3.90
2018-06-17T03:04:51.412Z,3.80
2018-06-17T03:07:21.362Z,3.60
2018-06-17T03:09:51.188Z,3.20
2018-06-17T03:12:22.212Z,3.47
2018-06-17T03:14:52.230Z,3.20
2018-06-17T03:17:22.105Z,3.70
2018-06-17T03:19:52.273Z,3.50
2018-06-17T03:22:22.130Z,3.73
2018-06-17T03:24:56.898Z,3.50
2018-06-17T03:28:16.859Z,3.37
2018-06-17T03:30:51.844Z,3.47
2018-06-17T03:33:26.572Z,3.73
2018-06-17T03:36:01.805Z,3.10
2018-06-17T03:38:31.569Z,3.20
2018-06-17T03:41:01.394Z,2.87
2018-06-17T03:43:31.708Z,3.57
2018-06-17T03:46:01.947Z,3.27
2018-06-17T03:48:31.808Z,3.70
2018-06-17T03:51:02.423Z,3.67
2018-06-17T03:53:32.400Z,3.40
2018-06-17T03:56:02.043Z,3.47
2018-06-17T03:58:31.916Z,3.77
2018-06-17T04:01:01.697Z,3.40
2018-06-17T04:03:31.837Z,3.03
2018-06-17T04:06:01.667Z,2.63
2018-06-17T04:08:31.451Z,3.10
2018-06-17T04:11:01.277Z,3.47
2018-06-17T04:13:31.233Z,3.20
2018-06-17T04:16:01.447Z,3.17
2018-06-17T04:18:31.297Z,3.43
2018-06-17T04:21:01.083Z,3.30
2018-06-17T04:23:31.307Z,3.20
2018-06-17T04:26:01.264Z,3.30
2018-06-17T04:28:31.097Z,3.10
2018-06-17T04:31:01.679Z,3.37
2018-06-17T04:33:32.389Z,2.93
2018-06-17T04:36:02.416Z,3.03
2018-06-17T04:38:33.304Z,2.80
2018-06-17T04:41:03.611Z,3.20
2018-06-17T04:43:33.503Z,3.07
2018-06-17T04:46:03.549Z,2.57
2018-06-17T04:48:33.470Z,2.57
2018-06-17T04:51:03.429Z,2.87
2018-06-17T04:53:35.467Z,2.50
2018-06-17T04:56:05.782Z,2.57
2018-06-17T04:58:36.597Z,2.50
2018-06-17T05:01:06.776Z,2.47
2018-06-17T05:03:38.235Z,2.63
2018-06-17T05:06:08.353Z,2.70
2018-06-17T05:08:38.376Z,2.53
2018-06-17T05:11:09.091Z,2.30
2018-06-17T05:13:38.827Z,2.90
2018-06-17T05:16:09.148Z,3.23
2018-06-17T05:18:39.136Z,2.67
2018-06-17T05:21:09.202Z,2.57
2018-06-17T05:23:39.810Z,2.80
2018-06-17T05:26:10.296Z,2.97
2018-06-17T05:28:40.168Z,2.80
2018-06-17T05:31:11.402Z,2.90
2018-06-17T05:33:41.838Z,3.50
2018-06-17T05:36:14.019Z,2.93
2018-06-17T05:38:43.927Z,3.00
2018-06-17T05:41:14.958Z,2.90
2018-06-17T05:43:45.832Z,3.10
2018-06-17T05:46:16.512Z,2.67
2018-06-17T05:48:46.460Z,2.80
2018-06-17T05:51:17.365Z,2.73
2018-06-17T05:53:47.623Z,2.97
2018-06-17T05:56:17.723Z,3.10
2018-06-17T05:58:48.145Z,2.93
2018-06-17T06:01:21.044Z,3.03
2018-06-17T06:03:51.350Z,2.53
2018-06-17T06:06:21.366Z,2.70
2018-06-17T06:08:52.332Z,3.17
2018-06-17T06:11:23.152Z,2.70
2018-06-17T06:14:03.391Z,3.00
2018-06-17T06:16:33.624Z,3.40
2018-06-17T06:19:03.744Z,3.00
2018-06-17T06:21:34.083Z,6.37
2018-06-17T06:24:05.282Z,3.00
2018-06-17T06:26:36.033Z,3.03
2018-06-17T06:29:06.003Z,3.10
2018-06-17T06:31:36.559Z,3.10
2018-06-17T06:34:07.711Z,3.10
2018-06-17T06:36:37.879Z,3.27
2018-06-17T06:39:09.859Z,3.13
2018-06-17T06:41:40.004Z,3.30
2018-06-17T06:44:10.302Z,3.20
2018-06-17T06:46:40.473Z,3.80
2018-06-17T06:49:10.520Z,2.73
2018-06-17T06:51:40.471Z,3.07
2018-06-17T06:54:10.755Z,3.13
2018-06-17T06:56:42.393Z,3.40
2018-06-17T06:59:12.483Z,2.70
2018-06-17T07:01:53.098Z,3.50
2018-06-17T07:04:33.891Z,3.23
2018-06-17T07:07:15.550Z,2.73
2018-06-17T07:09:56.126Z,3.00
2018-06-17T07:12:26.651Z,3.00
2018-06-17T07:14:57.470Z,3.00
2018-06-17T07:17:38.189Z,3.27
2018-06-17T07:20:09.764Z,3.00
2018-06-17T07:22:41.088Z,2.70
2018-06-17T07:25:18.334Z,2.60
2018-06-17T07:28:29.057Z,3.30
2018-06-17T07:30:59.908Z,2.63
2018-06-17T07:33:31.382Z,2.70
2018-06-17T07:36:01.460Z,3.00
2018-06-17T07:38:33.752Z,3.03
2018-06-17T07:41:04.757Z,3.00
2018-06-17T07:43:35.532Z,2.80
2018-06-17T07:46:07.642Z,2.70
2018-06-17T07:49:50.421Z,2.90
2018-06-17T07:52:31.887Z,2.60
2018-06-17T07:55:03.588Z,3.10
2018-06-17T07:57:36.497Z,2.80
2018-06-17T08:00:09.065Z,3.10
2018-06-17T08:02:39.968Z,3.00
2018-06-17T08:05:10.121Z,2.73
2018-06-17T08:07:41.782Z,2.97
2018-06-17T08:10:13.196Z,2.80
2018-06-17T08:12:44.557Z,2.57
2018-06-17T08:15:17.058Z,2.70
2018-06-17T08:17:48.636Z,4.60
2018-06-17T08:20:20.187Z,2.77
2018-06-17T08:22:50.428Z,3.67
2018-06-17T08:25:21.662Z,2.77
2018-06-17T08:27:53.093Z,2.60
2018-06-17T08:30:24.457Z,2.80
2018-06-17T08:32:55.099Z,2.50
2018-06-17T08:35:27.787Z,2.47
2018-06-17T08:37:59.806Z,2.80
2018-06-17T08:40:31.248Z,2.60
2018-06-17T08:43:04.169Z,2.97
2018-06-17T08:45:38.039Z,2.73
2018-06-17T08:48:09.736Z,2.40
2018-06-17T08:50:40.581Z,2.87
2018-06-17T08:53:13.536Z,2.90
2018-06-17T08:55:44.614Z,2.50
2018-06-17T08:58:19.509Z,2.57
2018-06-17T09:00:52.323Z,2.60
2018-06-17T09:03:25.223Z,2.97
2018-06-17T09:05:57.095Z,2.63
2018-06-17T09:08:32.116Z,2.23
2018-06-17T09:11:03.662Z,2.43
2018-06-17T09:13:37.721Z,2.40
2018-06-17T09:16:14.683Z,2.50
2018-06-17T09:18:48.578Z,2.30
2018-06-17T09:21:22.720Z,2.87
2018-06-17T09:23:54.175Z,2.83
2018-06-17T09:26:27.502Z,2.20
2018-06-17T09:28:59.611Z,2.63
2018-06-17T09:31:40.345Z,2.70
2018-06-17T09:41:24.839Z,2.63
2018-06-17T09:44:12.802Z,2.10
2018-06-17T09:46:51.346Z,2.63
2018-06-17T09:49:21.558Z,2.77
2018-06-17T09:51:57.405Z,2.90
2018-06-17T09:54:42.788Z,2.53
2018-06-17T09:57:20.688Z,2.40
2018-06-17T09:59:54.597Z,2.50
2018-06-17T10:02:29.644Z,3.00
2018-06-17T10:05:06.719Z,3.33
2018-06-17T10:07:47.304Z,2.77
2018-06-17T10:11:03.547Z,2.87
2018-06-17T10:13:42.105Z,3.20
2018-06-17T10:16:19.969Z,3.00
2018-06-17T10:18:53.172Z,3.07
2018-06-17T10:21:30.447Z,2.27
2018-06-17T10:24:06.850Z,2.50
2018-06-17T10:26:52.232Z,2.30
2018-06-17T10:29:27.463Z,2.47
2018-06-17T10:31:58.774Z,2.23
2018-06-17T10:34:29.004Z,2.00
2018-06-17T10:37:03.446Z,2.80
2018-06-17T10:39:39.485Z,2.37
2018-06-17T10:42:12.621Z,2.73
2018-06-17T10:44:44.721Z,2.30
2018-06-17T10:47:17.386Z,2.37
2018-06-17T10:49:47.667Z,2.20
2018-06-17T10:52:20.095Z,1.93
2018-06-17T10:54:53.220Z,2.10
2018-06-17T10:57:23.417Z,2.27
2018-06-17T10:59:55.822Z,2.47
2018-06-17T11:02:27.572Z,2.30
2018-06-17T11:04:58.225Z,2.30
2018-06-17T11:07:28.373Z,2.40
2018-06-17T11:10:02.096Z,2.37
2018-06-17T11:12:32.765Z,2.10
2018-06-17T11:15:03.386Z,2.20
2018-06-17T11:17:35.473Z,2.40
2018-06-17T11:20:08.484Z,2.23
2018-06-17T11:22:40.837Z,2.17
2018-06-17T11:25:13.552Z,2.20
2018-06-17T11:27:46.045Z,2.47
2018-06-17T11:30:17.969Z,2.60
2018-06-17T11:32:51.151Z,2.20
2018-06-17T11:35:24.796Z,2.10
2018-06-17T11:37:55.513Z,2.23
2018-06-17T11:40:26.894Z,2.07
2018-06-17T11:42:58.571Z,2.10
2018-06-17T11:45:29.640Z,2.20
2018-06-17T11:48:00.959Z,2.50
2018-06-17T11:50:34.013Z,2.37
2018-06-17T11:53:08.515Z,2.30
2018-06-17T11:55:39.341Z,2.43
2018-06-17T11:58:10.417Z,2.10
2018-06-17T12:00:42.651Z,2.30
2018-06-17T12:03:16.372Z,2.20
2018-06-17T12:05:48.838Z,2.43
2018-06-17T12:08:21.752Z,2.07
2018-06-17T12:10:52.797Z,2.30
2018-06-17T12:13:28.329Z,1.90
2018-06-17T12:16:04.206Z,2.20
2018-06-17T12:18:42.776Z,2.40
2018-06-17T12:21:19.159Z,1.97
2018-06-17T12:23:52.526Z,2.10
2018-06-17T12:26:23.577Z,2.10
2018-06-17T12:28:54.879Z,2.13
2018-06-17T12:31:28.715Z,2.00
2018-06-17T12:34:10.354Z,2.10
2018-06-17T12:36:49.793Z,2.00
2018-06-17T12:39:24.617Z,2.70
2018-06-17T12:42:00.775Z,2.70
2018-06-17T12:44:32.625Z,2.37
2018-06-17T12:47:04.112Z,2.23
2018-06-17T12:49:39.487Z,2.27
2018-06-17T12:52:15.069Z,1.90
2018-06-17T12:54:54.333Z,1.90
2018-06-17T12:57:29.202Z,2.10
2018-06-17T13:00:09.309Z,2.20
2018-06-17T13:02:41.146Z,1.90
2018-06-17T13:05:14.000Z,2.30
2018-06-17T13:07:47.754Z,1.80
2018-06-17T13:10:20.324Z,1.90
2018-06-17T13:12:55.198Z,3.00
2018-06-17T13:15:31.048Z,3.33
2018-06-17T13:18:07.263Z,2.10
2018-06-17T13:23:35.955Z,2.63
2018-06-17T13:26:12.505Z,1.90
2018-06-17T13:28:47.688Z,2.80
2018-06-17T13:31:23.517Z,3.50
2018-06-17T13:34:01.234Z,2.33
2018-06-17T13:36:34.254Z,1.90
2018-06-17T13:39:10.759Z,1.80
2018-06-17T13:41:44.147Z,2.63
2018-06-17T13:44:21.224Z,1.87
2018-06-17T13:46:53.874Z,2.97
2018-06-17T13:49:27.079Z,1.87
2018-06-17T13:52:09.830Z,1.67
2018-06-17T13:54:42.447Z,1.90
2018-06-17T13:57:23.033Z,2.03
2018-06-17T14:00:00.375Z,1.90
2018-06-17T14:02:35.568Z,1.50
2018-06-17T14:05:19.831Z,1.60
2018-06-17T14:08:04.036Z,2.20
2018-06-17T14:10:39.575Z,1.87
2018-06-17T14:13:14.933Z,2.23
2018-06-17T14:15:47.344Z,1.63
2018-06-17T14:18:20.330Z,1.83
2018-06-17T14:20:58.873Z,2.87
2018-06-17T14:23:42.799Z,1.90
2018-06-17T14:26:16.426Z,2.13
2018-06-17T14:28:52.967Z,1.87
2018-06-17T14:31:27.602Z,1.87
2018-06-17T14:34:00.895Z,1.67
2018-06-17T14:36:34.848Z,1.80
2018-06-17T14:39:10.695Z,1.53
2018-06-17T14:41:44.961Z,1.57
2018-06-17T14:44:24.563Z,1.27
2018-06-17T14:47:02.777Z,1.80
2018-06-17T14:49:39.393Z,2.03
2018-06-17T14:52:18.279Z,1.57
2018-06-17T15:38:44.439Z,1.60
2018-06-17T15:41:23.470Z,1.60
2018-06-17T15:44:07.407Z,2.10
2018-06-17T15:46:39.544Z,1.73
2018-06-17T15:49:15.451Z,1.80
2018-06-17T15:51:56.775Z,1.67
2018-06-17T15:54:30.076Z,2.27
2018-06-17T15:57:09.058Z,2.17
2018-06-17T15:59:46.719Z,2.00
2018-06-17T16:02:20.566Z,1.93
2018-06-17T16:04:56.182Z,1.63
2018-06-17T16:07:33.832Z,2.00
2018-06-17T16:10:14.594Z,1.77
2018-06-17T16:12:54.308Z,1.83
2018-06-17T16:15:37.077Z,1.80
2018-06-17T16:18:28.954Z,1.80
2018-06-17T16:21:09.917Z,1.50
2018-06-17T16:23:48.556Z,1.77
2018-06-17T16:26:21.717Z,1.97
2018-06-17T16:29:02.549Z,1.53
2018-06-17T16:34:52.624Z,1.70
2018-06-17T16:37:28.549Z,1.50
2018-06-17T16:40:13.091Z,1.60
2018-06-17T16:42:46.467Z,1.60
2018-06-17T16:45:20.096Z,1.60
2018-06-17T16:47:54.761Z,1.43
2018-06-17T16:50:34.838Z,1.80
2018-06-17T16:53:17.678Z,1.87
2018-06-17T16:55:57.206Z,1.90
2018-06-17T16:58:37.750Z,1.73
2018-06-17T17:01:15.109Z,1.73
2018-06-17T17:03:49.507Z,1.70
2018-06-17T17:06:22.333Z,1.80
2018-06-17T17:08:57.448Z,1.80
2018-06-17T17:11:28.961Z,1.70
2018-06-17T17:16:44.122Z,1.43
2018-06-17T17:19:18.684Z,1.70
2018-06-17T17:21:50.028Z,1.50
2018-06-17T17:24:21.862Z,1.30
2018-06-17T17:26:53.321Z,1.70
2018-06-17T17:29:31.980Z,1.80
2018-06-17T17:32:11.310Z,1.40
2018-06-17T17:34:54.388Z,1.37
2018-06-17T17:37:34.055Z,1.60
2018-06-17T17:40:16.665Z,1.50
2018-06-17T17:42:54.389Z,1.60
2018-06-17T17:45:34.363Z,1.20
2018-06-17T17:48:08.754Z,1.50
2018-06-17T17:51:00.989Z,1.77
2018-06-17T17:53:39.272Z,1.60
2018-06-17T17:56:12.700Z,1.63
2018-06-17T17:58:49.090Z,1.53
2018-06-17T18:01:27.911Z,1.53
2018-06-17T18:04:04.917Z,1.60
2018-06-17T18:06:41.965Z,1.23
2018-06-17T18:09:15.975Z,1.60
2018-06-17T18:11:53.458Z,2.63
2018-06-17T18:14:32.171Z,1.57
2018-06-17T18:17:09.736Z,1.60
2018-06-17T18:19:44.033Z,1.53
2018-06-17T18:22:19.131Z,1.33
2018-06-17T18:25:05.777Z,1.40
2018-06-17T18:27:45.964Z,1.47
2018-06-17T18:30:23.296Z,1.30
2018-06-17T18:32:59.650Z,1.30
2018-06-17T18:35:37.083Z,1.37
2018-06-17T18:38:07.895Z,1.27
2018-06-17T18:40:39.956Z,1.73
2018-06-17T18:43:16.600Z,1.57
2018-06-17T18:45:54.682Z,1.50
2018-06-17T18:48:27.605Z,1.23
2018-06-17T18:51:01.497Z,1.83
2018-06-17T18:53:34.359Z,1.43
2018-06-17T18:56:05.589Z,2.10
2018-06-17T18:58:40.034Z,1.70
2018-06-17T19:01:13.324Z,1.77
2018-06-17T19:03:45.589Z,1.67
2018-06-17T19:06:18.768Z,1.87
2018-06-17T19:08:54.830Z,1.40
2018-06-17T19:11:32.143Z,1.87
2018-06-17T19:14:09.631Z,1.77
2018-06-17T19:16:49.952Z,1.80
2018-06-17T19:19:27.998Z,2.60
2018-06-17T19:22:02.468Z,1.77
2018-06-17T19:24:37.062Z,1.80
2018-06-17T19:27:09.441Z,1.50
2018-06-17T19:29:42.912Z,1.67
2018-06-17T19:32:18.803Z,1.80
2018-06-17T19:34:50.649Z,1.60
2018-06-17T19:37:25.772Z,1.87
2018-06-17T19:40:05.991Z,1.50
2018-06-17T19:42:38.475Z,2.23
2018-06-17T19:45:14.496Z,2.60
2018-06-17T19:47:50.880Z,1.63
2018-06-17T19:50:29.722Z,1.70
2018-06-17T19:53:11.006Z,1.90
2018-06-17T19:55:50.618Z,1.83
2018-06-17T19:58:26.602Z,1.97
2018-06-17T20:01:07.050Z,1.97
2018-06-17T20:03:41.902Z,1.70
2018-06-17T20:06:14.736Z,1.67
2018-06-17T20:08:49.967Z,2.30
2018-06-17T20:11:26.141Z,2.03
2018-06-17T20:14:00.480Z,2.00
2018-06-17T20:16:35.355Z,1.70
2018-06-17T20:19:08.280Z,2.20
2018-06-17T20:21:46.648Z,1.70
2018-06-17T20:24:30.643Z,2.07
2018-06-17T20:27:03.392Z,2.00
2018-06-17T20:29:39.769Z,2.00
2018-06-17T20:32:17.081Z,1.80
2018-06-17T20:35:08.657Z,1.80
2018-06-17T20:37:46.078Z,1.87
2018-06-17T20:42:29.295Z,2.30
2018-06-17T20:45:07.587Z,1.97
2018-06-17T20:47:40.721Z,2.00
2018-06-17T20:50:17.930Z,2.03
2018-06-17T20:52:58.463Z,2.20
2018-06-17T20:55:32.539Z,1.73
2018-06-17T20:58:05.990Z,2.73
2018-06-17T21:00:39.526Z,2.20
2018-06-17T21:03:12.286Z,1.90
2018-06-17T21:05:46.857Z,2.03
2018-06-17T21:08:20.273Z,2.13
2018-06-17T21:10:51.899Z,2.00
2018-06-17T21:13:25.371Z,1.90
2018-06-17T21:16:02.111Z,2.10
2018-06-17T21:18:39.538Z,2.07
2018-06-17T21:21:20.514Z,1.90
2018-06-17T21:24:04.744Z,2.40
2018-06-17T21:26:41.710Z,2.40
2018-06-17T21:29:14.803Z,2.43
2018-06-17T21:31:48.497Z,2.23
2018-06-17T21:34:22.233Z,2.20
2018-06-17T21:36:55.256Z,1.87
2018-06-17T21:39:29.289Z,2.10
2018-06-17T21:42:14.495Z,1.93
2018-06-17T21:44:55.500Z,2.10
2018-06-17T21:47:34.493Z,2.20
2018-06-17T21:50:15.857Z,2.20
2018-06-17T21:52:49.631Z,2.13
2018-06-17T21:55:23.650Z,2.10
2018-06-17T21:58:04.363Z,2.00
2018-06-17T22:00:37.840Z,1.90
2018-06-17T22:03:20.463Z,2.20
2018-06-17T22:05:59.642Z,2.00
2018-06-17T22:08:36.520Z,2.20
2018-06-17T22:11:19.744Z,1.93
2018-06-17T22:14:00.329Z,2.17
2018-06-17T22:16:36.798Z,2.00
2018-06-17T22:19:10.998Z,2.30
2018-06-17T22:21:48.039Z,2.30
2018-06-17T22:24:25.527Z,1.90
2018-06-17T22:27:07.557Z,2.00
2018-06-17T22:29:39.719Z,2.30
2018-06-17T22:32:19.829Z,2.13
2018-06-17T22:35:00.851Z,2.10
2018-06-17T22:37:43.431Z,2.20
2018-06-17T22:40:16.295Z,2.00
2018-06-17T22:42:52.030Z,1.90
2018-06-17T22:45:28.081Z,1.97
2018-06-17T22:48:01.379Z,1.97
2018-06-17T22:50:46.392Z,2.20
2018-06-17T22:53:27.346Z,2.30
2018-06-17T22:56:00.439Z,2.33
2018-06-17T22:58:38.533Z,2.77
2018-06-17T23:01:17.321Z,2.50
2018-06-17T23:03:54.936Z,2.23
2018-06-17T23:06:31.450Z,2.30
2018-06-17T23:09:07.009Z,2.30
2018-06-17T23:11:39.850Z,2.20
2018-06-17T23:14:12.858Z,2.30
2018-06-17T23:16:45.236Z,2.20
2018-06-17T23:19:16.897Z,2.50
2018-06-17T23:21:47.534Z,2.17
2018-06-17T23:24:18.196Z,2.30
2018-06-17T23:26:51.005Z,2.30
2018-06-17T23:29:21.428Z,2.20
2018-06-17T23:31:52.006Z,2.40
2018-06-17T23:34:24.473Z,2.20
2018-06-17T23:36:55.817Z,1.87
2018-06-17T23:39:28.128Z,2.87
2018-06-17T23:41:59.968Z,2.37
2018-06-17T23:44:31.555Z,2.40
2018-06-17T23:47:07.488Z,2.17
2018-06-17T23:49:42.581Z,2.43
2018-06-17T23:52:17.725Z,2.07
2018-06-17T23:54:54.051Z,2.67
2018-06-17T23:57:25.748Z,2.13
2018-06-17T23:59:57.322Z,2.30
